Time;durP1;ratioP1;P1;durP2;ratioP2;P2;SDS_P1;SDS_P2;PMS_P1;PMS_P2;Temp;Humidity;BMP_temperature;BMP_pressure;BME280_temperature;BME280_humidity;BME280_pressure;Samples;Min_cycle;Max_cycle;Signal;HPM_P1;HPM_P2
2022/08/10 00:01:28;;;;;;;4.18;1.40;;;;;;;16.51;95.91;102871.69;5071677;28;20032;-71
2022/08/10 00:03:54;;;;;;;1.63;1.30;;;;;;;16.40;96.42;102860.19;5072031;28;20037;-71
2022/08/10 00:06:20;;;;;;;3.25;1.40;;;;;;;16.51;95.38;102880.53;5078613;28;20396;-71
2022/08/10 00:08:45;;;;;;;3.45;2.28;;;;;;;16.47;94.58;102886.28;5077023;28;20073;-71
2022/08/10 00:11:10;;;;;;;2.05;1.60;;;;;;;16.45;94.85;102889.91;5074792;28;20029;-71
2022/08/10 00:13:36;;;;;;;3.47;1.90;;;;;;;16.45;96.38;102889.91;5078253;28;20032;-71
2022/08/10 00:16:02;;;;;;;2.50;1.40;;;;;;;16.41;95.41;102885.81;5070461;28;20121;-71
2022/08/10 00:18:28;;;;;;;2.95;1.58;;;;;;;16.39;93.30;102890.44;5080514;28;20032;-71
2022/08/10 00:20:54;;;;;;;2.28;1.63;;;;;;;16.36;93.50;102877.41;5076848;28;20322;-71
2022/08/10 00:23:19;;;;;;;2.38;1.50;;;;;;;16.37;93.39;102886.25;5054350;28;20131;-71
2022/08/10 00:25:45;;;;;;;2.30;1.60;;;;;;;16.34;92.17;102879.38;5074142;28;20454;-69
2022/08/10 00:28:10;;;;;;;3.70;1.85;;;;;;;16.25;94.08;102861.56;5075708;28;20037;-72
2022/08/10 00:30:36;;;;;;;1.88;1.27;;;;;;;16.34;94.10;102876.72;5079595;28;20523;-70
2022/08/10 00:33:01;;;;;;;2.45;1.33;;;;;;;16.28;95.28;102881.75;5080895;28;20055;-72
2022/08/10 00:35:26;;;;;;;10.25;2.05;;;;;;;16.28;97.40;102876.44;5070723;28;20035;-71
2022/08/10 00:37:52;;;;;;;3.55;2.17;;;;;;;16.29;98.85;102873.63;5078984;28;20036;-70
2022/08/10 00:40:17;;;;;;;3.88;2.33;;;;;;;16.20;100.00;102866.44;5075640;28;20127;-72
2022/08/10 00:42:43;;;;;;;3.42;2.20;;;;;;;16.27;100.00;102886.25;5077596;28;20460;-72
2022/08/10 00:45:08;;;;;;;5.88;2.20;;;;;;;16.23;100.00;102885.66;5081213;28;20034;-72
2022/08/10 00:47:34;;;;;;;3.90;2.72;;;;;;;16.23;100.00;102879.50;5077407;28;20373;-72
2022/08/10 00:49:59;;;;;;;2.92;1.98;;;;;;;16.15;100.00;102871.34;5078705;28;20113;-70
2022/08/10 00:52:28;;;;;;;5.18;1.85;;;;;;;16.17;100.00;102878.22;5078996;28;20024;-72
2022/08/10 00:54:54;;;;;;;6.65;2.35;;;;;;;16.22;100.00;102886.66;5074966;28;20025;-73
2022/08/10 00:57:20;;;;;;;1.73;1.33;;;;;;;16.23;100.00;102884.84;5086257;28;20031;-72
2022/08/10 00:59:46;;;;;;;5.18;2.20;;;;;;;16.20;99.25;102885.09;5072748;28;20028;-70
2022/08/10 01:02:11;;;;;;;3.88;1.80;;;;;;;16.16;99.06;102884.53;5084131;28;20031;-70
2022/08/10 01:04:37;;;;;;;3.10;1.70;;;;;;;16.20;99.92;102885.09;5083074;28;20028;-69
2022/08/10 01:07:11;;;;;;;2.58;2.13;;;;;;;16.20;99.99;102885.09;5077711;28;20048;-71
2022/08/10 01:09:45;;;;;;;3.97;2.08;;;;;;;16.18;99.61;102881.75;5077477;28;20032;-70
2022/08/10 01:12:44;;;;;;;2.95;1.40;;;;;;;16.20;100.00;102879.75;5069089;28;20859;-70
2022/08/10 01:15:23;;;;;;;1.98;1.40;;;;;;;16.18;100.00;102885.25;5068104;28;20044;-70
2022/08/10 01:17:56;;;;;;;3.78;1.40;;;;;;;16.15;99.96;102887.34;5075702;28;20046;-71
2022/08/10 01:20:28;;;;;;;5.00;1.40;;;;;;;16.15;100.00;102884.66;5077478;28;20020;-69
2022/08/10 01:23:21;;;;;;;2.08;1.40;;;;;;;16.15;99.69;102887.34;5085231;28;20407;-69
2022/08/10 01:26:05;;;;;;;1.85;1.30;;;;;;;16.11;99.26;102884.09;5078009;28;20023;-70
2022/08/10 01:28:56;;;;;;;3.60;1.70;;;;;;;16.12;99.38;102879.63;5079909;28;20055;-70
2022/08/10 01:31:27;;;;;;;2.22;1.52;;;;;;;16.09;99.28;102883.41;5079488;28;20040;-70
2022/08/10 01:33:57;;;;;;;7.32;2.13;;;;;;;16.05;99.69;102876.69;5075286;28;20083;-70
2022/08/10 01:36:28;;;;;;;2.38;1.60;;;;;;;16.08;99.60;102875.56;5082095;28;20530;-69
2022/08/10 01:38:57;;;;;;;2.97;2.45;;;;;;;15.97;99.62;102864.03;5077835;28;20031;-70
2022/08/10 01:41:27;;;;;;;3.97;1.92;;;;;;;16.02;100.00;102876.94;5079125;28;20024;-70
2022/08/10 01:44:02;;;;;;;2.10;1.35;;;;;;;15.98;100.00;102871.06;5075855;28;20027;-71
2022/08/10 01:46:30;;;;;;;2.28;1.23;;;;;;;15.98;100.00;102871.06;5084523;28;20060;-69
2022/08/10 01:48:58;;;;;;;5.35;1.50;;;;;;;15.97;99.73;102874.69;5083857;28;20464;-70
2022/08/10 01:51:51;;;;;;;2.13;1.58;;;;;;;15.99;100.00;102870.06;5070785;28;20472;-69
2022/08/10 01:54:23;;;;;;;3.60;1.75;;;;;;;15.96;100.00;102867.69;5080327;28;20564;-70
2022/08/10 01:56:57;;;;;;;2.30;1.17;;;;;;;15.96;100.00;102875.66;5084629;28;20055;-70
2022/08/10 01:59:32;;;;;;;2.90;1.80;;;;;;;15.96;100.00;102873.00;5075347;28;20043;-70
2022/08/10 02:02:02;;;;;;;2.97;1.70;;;;;;;15.97;100.00;102874.69;5078955;28;20515;-71
2022/08/10 02:04:31;;;;;;;3.08;1.73;;;;;;;15.93;100.00;102867.09;5067741;28;20119;-70
2022/08/10 02:07:00;;;;;;;4.68;2.10;;;;;;;15.94;100.00;102874.97;5076156;28;20111;-69
2022/08/10 02:09:29;;;;;;;2.92;1.80;;;;;;;15.81;100.00;102853.06;5084719;28;20028;-70
2022/08/10 02:11:59;;;;;;;3.50;2.55;;;;;;;15.87;100.00;102870.31;5074422;28;20028;-70
2022/08/10 02:14:30;;;;;;;5.72;2.25;;;;;;;15.89;100.00;102874.50;5079443;28;20020;-70
2022/08/10 02:16:56;;;;;;;3.15;2.05;;;;;;;15.87;100.00;102870.31;5069616;28;20036;-70
2022/08/10 02:19:25;;;;;;;8.60;2.70;;;;;;;15.78;100.00;102858.66;5081789;28;20024;-70
2022/08/10 02:21:53;;;;;;;3.17;1.70;;;;;;;15.82;100.00;102866.22;5064058;28;20029;-70
2022/08/10 02:24:20;;;;;;;2.85;1.83;;;;;;;15.83;100.00;102867.91;5077411;28;20077;-69
2022/08/10 02:26:47;;;;;;;3.50;2.38;;;;;;;15.84;100.00;102860.78;5077849;28;20550;-69
2022/08/10 02:29:16;;;;;;;7.07;2.22;;;;;;;15.83;100.00;102864.44;5078649;28;20198;-70
2022/08/10 02:31:43;;;;;;;4.68;2.42;;;;;;;15.82;100.00;102862.72;5080901;28;20055;-70
2022/08/10 02:34:11;;;;;;;8.30;2.22;;;;;;;15.74;100.00;102857.22;5059902;28;20040;-70
2022/08/10 02:36:42;;;;;;;3.67;1.85;;;;;;;15.78;100.00;102866.63;5074243;28;20381;-69
2022/08/10 02:39:08;;;;;;;3.88;2.08;;;;;;;15.76;100.00;102863.25;5073558;28;20019;-70
2022/08/10 02:41:52;;;;;;;4.70;2.20;;;;;;;15.74;100.00;102860.75;5077126;28;20024;-70
2022/08/10 02:44:38;;;;;;;3.03;1.77;;;;;;;15.74;100.00;102865.22;5069577;28;20027;-69
2022/08/10 02:47:11;;;;;;;2.15;1.45;;;;;;;15.69;100.00;102862.09;5074054;28;20439;-69
2022/08/10 02:49:50;;;;;;;4.28;1.88;;;;;;;15.64;100.00;102865.16;5077089;28;20051;-71
2022/08/10 02:52:23;;;;;;;3.10;1.50;;;;;;;15.59;100.00;102864.69;5065944;28;20052;-70
2022/08/10 02:55:02;;;;;;;3.30;1.88;;;;;;;15.59;100.00;102859.38;5080711;28;20107;-70
2022/08/10 02:57:35;;;;;;;2.80;1.40;;;;;;;15.59;100.00;102860.25;5078525;28;20016;-70
2022/08/10 03:00:06;;;;;;;2.47;2.08;;;;;;;15.60;100.00;102861.91;5069075;28;20024;-70
2022/08/10 03:02:35;;;;;;;2.28;1.77;;;;;;;15.58;100.00;102850.56;5078466;28;20017;-70
2022/08/10 03:05:09;;;;;;;2.97;1.98;;;;;;;15.52;100.00;102853.75;5072288;28;20563;-70
2022/08/10 03:08:06;;;;;;;3.85;1.60;;;;;;;15.48;100.00;102852.31;5069099;28;20254;-70
2022/08/10 03:10:37;;;;;;;3.17;1.35;;;;;;;15.42;100.00;102858.19;5068417;28;20021;-71
2022/08/10 03:13:04;;;;;;;;;;;;;;;15.49;100.00;102850.53;5071189;28;20031;-70
2022/08/10 03:15:32;;;;;;;2.15;1.30;;;;;;;15.38;100.00;102848.78;5074003;28;19918;-70
2022/08/10 03:17:59;;;;;;;2.00;1.35;;;;;;;15.43;100.00;102851.88;5082193;28;20054;-70
2022/08/10 03:20:31;;;;;;;2.60;1.60;;;;;;;15.45;100.00;102843.78;5070223;28;20058;-70
2022/08/10 03:22:58;;;;;;;2.72;1.50;;;;;;;15.43;100.00;102849.22;5080980;28;20031;-70
2022/08/10 03:25:25;;;;;;;3.85;1.98;;;;;;;15.41;100.00;102846.69;5067494;28;20081;-70
2022/08/10 03:27:51;;;;;;;1.50;1.30;;;;;;;15.38;100.00;102848.78;5078919;28;20028;-70
2022/08/10 03:30:17;;;;;;;2.95;1.65;;;;;;;15.36;99.81;102854.25;5076224;28;20456;-70
2022/08/10 03:32:43;;;;;;;2.33;1.38;;;;;;;15.36;99.95;102856.91;5082010;28;20031;-70
2022/08/10 03:35:10;;;;;;;1.58;1.17;;;;;;;15.35;100.00;102852.56;5071645;28;20037;-70
2022/08/10 03:37:36;;;;;;;3.78;1.67;;;;;;;15.27;100.00;102838.25;5077243;28;20471;-70
2022/08/10 03:40:02;;;;;;;3.33;1.85;;;;;;;15.35;100.00;102846.38;5078111;28;20426;-70
2022/08/10 03:42:30;;;;;;;2.35;1.25;;;;;;;15.30;100.00;102846.78;5071924;28;20103;-70
2022/08/10 03:44:57;;;;;;;2.65;1.15;;;;;;;15.28;99.42;102846.06;5079182;28;20034;-70
2022/08/10 03:47:24;;;;;;;1.50;1.10;;;;;;;15.23;99.08;102838.50;5068591;28;20457;-70
2022/08/10 03:49:51;;;;;;;3.72;1.85;;;;;;;15.27;99.63;102849.72;5076468;28;20515;-70
2022/08/10 03:52:18;;;;;;;1.48;0.95;;;;;;;15.18;98.67;102830.06;5077976;28;20437;-71
2022/08/10 03:54:44;;;;;;;2.05;1.30;;;;;;;15.26;98.30;102848.03;5069231;28;20044;-70
2022/08/10 03:57:10;;;;;;;1.30;0.90;;;;;;;15.25;97.30;102850.84;5079014;28;20379;-69
2022/08/10 03:59:36;;;;;;;1.38;1.23;;;;;;;15.26;97.64;102848.03;5072058;28;20020;-70
2022/08/10 04:02:05;;;;;;;1.67;0.95;;;;;;;15.21;96.95;102835.13;5073477;28;20100;-71
2022/08/10 04:04:31;;;;;;;2.80;1.48;;;;;;;15.22;96.25;102846.59;5079383;28;20396;-69
2022/08/10 04:06:58;;;;;;;3.05;1.88;;;;;;;15.29;100.00;102852.25;5077716;28;20514;-69
2022/08/10 04:09:30;;;;;;;4.45;1.35;;;;;;;15.26;100.00;102837.38;5075419;28;20028;-70
2022/08/10 04:11:55;;;;;;;2.55;1.65;;;;;;;15.33;100.00;102849.19;5076514;28;20054;-70
2022/08/10 04:14:20;;;;;;;3.28;2.42;;;;;;;15.34;100.00;102847.38;5074166;28;20024;-70
2022/08/10 04:16:46;;;;;;;3.30;1.85;;;;;;;15.36;100.00;102842.75;5077371;28;20029;-70
2022/08/10 04:19:13;;;;;;;2.55;1.77;;;;;;;15.34;100.00;102844.72;5080774;28;20036;-70
2022/08/10 04:21:42;;;;;;;2.30;1.58;;;;;;;15.37;100.00;102841.78;5072861;28;20024;-70
2022/08/10 04:24:12;;;;;;;2.75;1.95;;;;;;;15.35;100.00;102841.94;5070879;28;20472;-70
2022/08/10 04:26:38;;;;;;;2.70;1.50;;;;;;;15.39;100.00;102845.16;5075898;28;20040;-70
2022/08/10 04:29:04;;;;;;;2.63;2.10;;;;;;;15.43;100.00;102836.75;5082752;28;20032;-70
2022/08/10 04:31:31;;;;;;;3.08;1.83;;;;;;;15.45;100.00;102838.47;5074906;28;20024;-70
2022/08/10 04:33:58;;;;;;;2.90;2.22;;;;;;;15.36;100.00;102827.63;5074163;28;20024;-70
2022/08/10 04:36:24;;;;;;;2.45;1.90;;;;;;;15.41;100.00;102836.03;5075376;28;20028;-70
2022/08/10 04:38:51;;;;;;;5.40;2.72;;;;;;;15.27;100.00;102822.28;5073081;28;20028;-70
2022/08/10 04:41:17;;;;;;;4.30;1.60;;;;;;;15.42;100.00;102836.91;5074318;28;20031;-70
2022/08/10 04:43:43;;;;;;;5.32;1.50;;;;;;;15.43;100.00;102823.44;5075053;28;20086;-70
2022/08/10 04:46:08;;;;;;;2.13;1.27;;;;;;;15.55;100.00;102840.19;5075815;28;20044;-70
2022/08/10 04:48:33;;;;;;;3.03;1.67;;;;;;;15.51;100.00;102827.28;5076995;28;20029;-70
2022/08/10 04:50:59;;;;;;;2.20;1.48;;;;;;;15.53;100.00;102834.16;5071913;28;20039;-72
2022/08/10 04:53:24;;;;;;;2.10;1.33;;;;;;;15.57;100.00;102832.91;5076736;28;20024;-69
2022/08/10 04:55:49;;;;;;;1.75;1.17;;;;;;;15.64;100.00;102835.88;5081675;28;20028;-69
2022/08/10 04:58:15;;;;;;;2.25;1.20;;;;;;;15.73;100.00;102829.75;5055548;28;20055;-69
2022/08/10 05:00:40;;;;;;;5.53;2.85;;;;;;;15.85;100.00;102835.81;5072997;28;20036;-69
2022/08/10 05:03:06;;;;;;;3.67;1.80;;;;;;;15.88;100.00;102837.38;5077928;28;20451;-69
2022/08/10 05:05:31;;;;;;;3.22;2.13;;;;;;;15.81;100.00;102821.13;5072786;28;20556;-70
2022/08/10 05:07:57;;;;;;;2.97;2.03;;;;;;;15.57;100.00;102779.69;5074601;28;20042;-70
2022/08/10 05:10:22;;;;;;;5.88;2.40;;;;;;;15.87;100.00;102820.53;5075216;28;20127;-70
2022/08/10 05:12:48;;;;;;;8.23;2.97;;;;;;;15.92;100.00;102836.97;5074134;28;20358;-70
2022/08/10 05:15:14;;;;;;;3.35;2.05;;;;;;;16.02;100.00;102835.16;5069779;28;20488;-69
2022/08/10 05:17:41;;;;;;;6.30;2.60;;;;;;;16.10;100.00;102849.63;5074320;28;20484;-69
2022/08/10 05:20:09;;;;;;;3.08;1.95;;;;;;;16.01;100.00;102833.47;5076228;28;20025;-71
2022/08/10 05:22:38;;;;;;;5.63;2.83;;;;;;;16.21;100.00;102854.81;5077354;28;20028;-69
2022/08/10 05:25:05;;;;;;;2.75;2.20;;;;;;;16.27;100.00;102854.28;5075962;28;20024;-69
2022/08/10 05:27:30;;;;;;;5.45;2.08;;;;;;;16.30;100.00;102847.81;5059866;28;20329;-71
2022/08/10 05:29:55;;;;;;;3.53;1.83;;;;;;;16.35;100.00;102843.78;5076079;28;20494;-69
2022/08/10 05:32:21;;;;;;;3.20;2.17;;;;;;;16.53;100.00;102853.75;5074381;28;20603;-69
2022/08/10 05:34:46;;;;;;;3.85;2.75;;;;;;;16.61;100.00;102865.38;5075409;28;20495;-69
2022/08/10 05:37:13;;;;;;;2.13;1.33;;;;;;;16.71;100.00;102862.69;5076165;28;20453;-70
2022/08/10 05:39:41;;;;;;;3.08;2.17;;;;;;;16.73;100.00;102850.06;5069762;28;20392;-69
2022/08/10 05:42:06;;;;;;;6.60;2.22;;;;;;;16.81;100.00;102860.91;5075039;28;20328;-71
2022/08/10 05:44:32;;;;;;;3.92;2.30;;;;;;;16.95;100.00;102861.44;5076517;28;20051;-69
2022/08/10 05:46:58;;;;;;;3.17;2.10;;;;;;;17.02;100.00;102862.53;5075813;28;20036;-71
2022/08/10 05:49:23;;;;;;;3.60;1.92;;;;;;;17.05;100.00;102859.63;5075482;28;20028;-70
2022/08/10 05:51:49;;;;;;;2.55;1.98;;;;;;;17.18;100.00;102859.28;5076984;28;20028;-70
2022/08/10 05:54:14;;;;;;;4.55;2.60;;;;;;;17.27;100.00;102864.59;5072484;28;20029;-69
2022/08/10 05:56:45;;;;;;;6.18;2.90;;;;;;;17.38;100.00;102857.41;5077107;28;20380;-69
2022/08/10 05:59:15;;;;;;;3.33;1.80;;;;;;;17.40;100.00;102847.44;5073061;28;20024;-70
2022/08/10 06:01:45;;;;;;;4.53;2.23;;;;;;;17.43;100.00;102858.63;5073921;28;20436;-70
2022/08/10 06:04:18;;;;;;;2.53;1.70;;;;;;;17.52;100.00;102867.59;5076626;28;20030;-69
2022/08/10 06:06:46;;;;;;;5.47;2.10;;;;;;;17.59;100.00;102868.69;5071413;28;20021;-71
2022/08/10 06:09:14;;;;;;;2.10;1.65;;;;;;;17.69;100.00;102858.81;5072978;28;20078;-71
2022/08/10 06:11:42;;;;;;;4.25;2.03;;;;;;;17.73;100.00;102863.88;5071106;28;20050;-70
2022/08/10 06:16:53;;;;;;;2.58;1.65;;;;;;;17.92;100.00;102855.78;5074635;28;20086;-70
2022/08/10 06:19:19;;;;;;;2.20;1.50;;;;;;;18.06;100.00;102854.44;5073372;28;20267;-70
2022/08/10 06:21:45;;;;;;;2.80;1.98;;;;;;;18.18;100.00;102863.91;5073913;28;20063;-71
2022/08/10 06:24:12;;;;;;;7.43;2.38;;;;;;;18.26;100.00;102852.47;5075433;28;20060;-70
2022/08/10 06:26:37;;;;;;;2.53;1.63;;;;;;;18.40;100.00;102867.97;5072035;28;20036;-71
2022/08/10 06:29:08;;;;;;;6.20;1.90;;;;;;;18.47;100.00;102863.69;5077285;28;20427;-71
2022/08/10 06:31:41;;;;;;;4.53;2.47;;;;;;;18.50;100.00;102860.69;5074393;28;20020;-70
2022/08/10 06:34:09;;;;;;;7.20;2.00;;;;;;;18.65;100.00;102852.97;5071735;28;20028;-70
2022/08/10 06:36:36;;;;;;;3.88;2.65;;;;;;;18.76;100.00;102857.25;5072860;28;20025;-70
2022/08/10 06:39:01;;;;;;;5.40;2.08;;;;;;;18.72;100.00;102861.22;5073994;28;20115;-70
2022/08/10 06:41:32;;;;;;;3.33;2.00;;;;;;;18.84;100.00;102853.84;5070529;28;20155;-70
2022/08/10 06:44:04;;;;;;;;;;;;;;;19.01;100.00;102865.47;5076096;28;20024;-70
2022/08/10 06:46:35;;;;;;;2.70;1.70;;;;;;;19.03;100.00;102852.78;5071728;28;19916;-70
2022/08/10 06:49:03;;;;;;;3.05;1.83;;;;;;;19.16;100.00;102860.38;5073617;28;20017;-70
2022/08/10 06:51:34;;;;;;;3.13;1.75;;;;;;;19.50;100.00;102865.78;5072887;28;20032;-70
2022/08/10 06:54:06;;;;;;;2.13;1.60;;;;;;;19.81;98.06;102846.50;5073921;28;20051;-71
2022/08/10 06:56:38;;;;;;;3.70;1.80;;;;;;;20.16;95.77;102839.22;5069872;28;20519;-71
2022/08/10 06:59:18;;;;;;;2.30;1.80;;;;;;;20.57;91.98;102844.63;5057226;28;20066;-71
2022/08/10 07:01:47;;;;;;;2.43;1.93;;;;;;;20.94;89.35;102858.38;5072577;28;20024;-71
2022/08/10 07:04:24;;;;;;;4.15;1.70;;;;;;;21.56;88.85;102848.84;5069882;28;20502;-71
2022/08/10 07:06:50;;;;;;;4.45;1.55;;;;;;;22.40;84.00;102862.50;5073126;28;20028;-71
2022/08/10 07:09:17;;;;;;;2.17;1.00;;;;;;;23.04;81.17;102869.34;5072224;28;20524;-71
2022/08/10 07:11:44;;;;;;;3.58;1.30;;;;;;;23.24;78.78;102869.69;5067843;28;20107;-71
2022/08/10 07:14:11;;;;;;;2.40;1.40;;;;;;;23.53;75.72;102860.72;5072618;28;20549;-71
2022/08/10 07:16:41;;;;;;;1.80;1.25;;;;;;;23.05;75.14;102868.34;5073567;28;20023;-71
2022/08/10 07:19:09;;;;;;;6.77;1.20;;;;;;;23.31;76.58;102867.91;5073804;28;20066;-71
2022/08/10 07:21:40;;;;;;;2.13;1.00;;;;;;;23.79;74.59;102855.69;5071942;28;20331;-72
2022/08/10 07:24:09;;;;;;;1.58;0.98;;;;;;;24.37;71.88;102871.06;5072625;28;20028;-71
2022/08/10 07:26:36;;;;;;;1.98;0.95;;;;;;;24.76;69.79;102858.94;5071327;28;20058;-71
2022/08/10 07:29:06;;;;;;;3.97;1.27;;;;;;;24.06;70.71;102874.03;5075097;28;20028;-71
2022/08/10 07:31:32;;;;;;;4.50;1.20;;;;;;;24.28;71.43;102872.19;5075264;28;20492;-71
2022/08/10 07:34:01;;;;;;;2.60;1.00;;;;;;;23.76;71.04;102877.66;5072217;28;20415;-71
2022/08/10 07:36:29;;;;;;;3.85;1.40;;;;;;;24.19;71.76;102869.63;5072363;28;20020;-71
2022/08/10 07:38:59;;;;;;;1.23;0.70;;;;;;;25.16;68.83;102875.44;5068607;28;20016;-71
2022/08/10 07:41:29;;;;;;;3.27;1.20;;;;;;;25.22;67.82;102861.16;5071546;28;20107;-71
2022/08/10 07:43:56;;;;;;;2.00;0.90;;;;;;;25.17;66.33;102867.16;5073865;28;20143;-71
2022/08/10 07:46:25;;;;;;;3.50;0.80;;;;;;;25.14;69.31;102877.50;5072632;28;20021;-71
2022/08/10 07:49:09;;;;;;;0.70;0.50;;;;;;;26.44;65.97;102873.88;5071820;28;20036;-71
2022/08/10 07:51:35;;;;;;;1.35;0.80;;;;;;;26.66;63.50;102879.94;5073367;28;20379;-71
2022/08/10 07:54:04;;;;;;;2.83;1.10;;;;;;;26.67;63.52;102881.63;5058394;28;20030;-71
2022/08/10 07:56:33;;;;;;;3.45;1.20;;;;;;;27.23;61.50;102887.63;5071442;28;20056;-71
2022/08/10 07:59:14;;;;;;;7.00;1.38;;;;;;;27.56;59.73;102886.69;5072050;28;20028;-72
2022/08/10 08:01:47;;;;;;;1.95;0.77;;;;;;;28.27;59.63;102877.56;5072301;28;20024;-72
2022/08/10 08:04:15;;;;;;;1.63;0.77;;;;;;;28.51;59.23;102879.47;5084441;28;20083;-72
2022/08/10 08:06:42;;;;;;;1.65;0.75;;;;;;;29.61;56.73;102880.66;5069385;28;20060;-72
2022/08/10 08:09:09;;;;;;;2.83;0.80;;;;;;;28.93;57.70;102882.44;5069641;28;20031;-72
2022/08/10 08:11:36;;;;;;;0.95;0.40;;;;;;;29.05;57.24;102874.41;5068719;28;20111;-72
2022/08/10 08:14:04;;;;;;;2.35;0.70;;;;;;;29.93;55.86;102889.47;5071230;28;20029;-72
2022/08/10 08:16:32;;;;;;;1.17;0.40;;;;;;;30.30;52.63;102883.94;5072318;28;20027;-72
2022/08/10 08:18:59;;;;;;;2.78;0.60;;;;;;;30.56;51.34;102870.94;5073665;28;20417;-72
2022/08/10 08:21:27;;;;;;;4.18;0.63;;;;;;;29.59;53.33;102881.94;5071457;28;20535;-72
2022/08/10 08:23:54;;;;;;;1.40;0.70;;;;;;;30.74;51.82;102875.44;5069731;28;20044;-72
2022/08/10 08:26:21;;;;;;;1.52;0.60;;;;;;;31.69;49.91;102881.63;5073630;28;20574;-72
2022/08/10 08:28:49;;;;;;;1.85;0.70;;;;;;;31.63;50.53;102888.03;5071962;28;20085;-72
2022/08/10 08:31:16;;;;;;;1.75;0.68;;;;;;;32.58;47.80;102878.31;5073037;28;20088;-72
2022/08/10 08:33:44;;;;;;;1.10;0.45;;;;;;;30.98;50.23;102881.75;5071731;28;20384;-72
2022/08/10 08:36:12;;;;;;;0.82;0.50;;;;;;;30.83;50.49;102868.56;5073424;28;20032;-72
2022/08/10 08:38:39;;;;;;;1.90;0.60;;;;;;;30.33;51.21;102861.69;5067077;28;20115;-72
2022/08/10 08:41:23;;;;;;;1.85;0.50;;;;;;;31.49;49.69;102861.03;5073153;28;20028;-72
2022/08/10 08:43:57;;;;;;;0.63;0.32;;;;;;;32.34;47.47;102859.31;5069947;28;20393;-72
2022/08/10 08:47:04;;;;;;;1.48;0.60;;;;;;;31.68;48.10;102869.03;5074133;28;20573;-72
2022/08/10 08:49:30;;;;;;;2.28;0.70;;;;;;;31.38;49.66;102861.88;5077070;28;20515;-72
2022/08/10 08:52:20;;;;;;;1.00;0.43;;;;;;;32.29;47.13;102864.69;5077395;28;20032;-72
2022/08/10 08:54:51;;;;;;;;;;;;;;;31.60;47.85;102864.81;5069733;28;20038;-72
2022/08/10 08:57:35;;;;;;;1.15;0.47;;;;;;;31.48;47.50;102862.09;5077743;28;20283;-72
2022/08/10 09:00:16;;;;;;;0.60;0.40;;;;;;;32.52;47.42;102857.41;5072770;28;20024;-72
2022/08/10 09:03:00;;;;;;;1.45;0.60;;;;;;;31.87;46.60;102853.28;5073441;28;20020;-72
2022/08/10 09:05:59;;;;;;;1.85;0.50;;;;;;;34.13;44.94;102844.34;5071661;28;20402;-72
2022/08/10 09:08:46;;;;;;;1.00;0.57;;;;;;;35.30;42.99;102851.66;5073698;28;20085;-72
2022/08/10 09:11:50;;;;;;;0.88;0.47;;;;;;;33.58;44.65;102842.69;5071542;28;20032;-72
2022/08/10 09:14:21;;;;;;;1.67;0.55;;;;;;;33.61;44.72;102847.69;4962225;28;20063;-72
2022/08/10 09:16:56;;;;;;;2.35;0.50;;;;;;;35.22;43.01;102839.28;4962143;28;20113;-72
2022/08/10 09:19:26;;;;;;;1.20;0.57;;;;;;;35.72;41.76;102844.38;4963121;28;20038;-72
2022/08/10 09:22:07;;;;;;;2.08;0.55;;;;;;;37.01;40.01;102834.88;4961345;28;20396;-72
2022/08/10 09:24:43;;;;;;;3.28;0.77;;;;;;;36.21;40.97;102843.84;4962271;28;20413;-72
2022/08/10 09:27:23;;;;;;;2.45;0.82;;;;;;;34.34;43.13;102839.03;4959835;28;20561;-71
2022/08/10 09:30:02;;;;;;;1.45;0.70;;;;;;;33.30;44.53;102835.53;4962199;28;20064;-70
2022/08/10 09:32:36;;;;;;;1.67;0.70;;;;;;;34.85;42.99;102831.16;4965270;28;20047;-70
2022/08/10 09:35:30;;;;;;;1.88;0.63;;;;;;;37.06;40.71;102826.56;4963388;28;20069;-70
2022/08/10 09:38:22;;;;;;;2.05;0.50;;;;;;;38.18;38.04;102824.22;4963073;28;20050;-70
2022/08/10 09:40:53;;;;;;;0.73;0.40;;;;;;;36.84;38.29;102825.03;4962863;28;20034;-70
2022/08/10 09:43:37;;;;;;;1.40;0.70;;;;;;;36.98;39.86;102819.75;4960229;28;20122;-70
2022/08/10 09:46:32;;;;;;;1.08;0.60;;;;;;;37.94;37.94;102813.13;5067260;28;20036;-70
2022/08/10 09:49:10;;;;;;;1.35;0.60;;;;;;;38.41;38.89;102809.59;5069438;28;20051;-70
2022/08/10 09:51:45;;;;;;;3.10;0.60;;;;;;;39.06;36.86;102811.09;5073055;28;20227;-70
2022/08/10 09:54:28;;;;;;;0.70;0.40;;;;;;;38.26;37.56;102809.78;5072977;28;20032;-70
2022/08/10 09:57:16;;;;;;;0.98;0.50;;;;;;;38.41;37.19;102823.41;5071292;28;20457;-70
2022/08/10 09:59:42;;;;;;;1.77;0.60;;;;;;;39.63;36.56;102816.63;5075531;28;20039;-70
2022/08/10 10:02:32;;;;;;;1.10;0.60;;;;;;;38.22;36.29;102817.00;5076586;28;20031;-70
2022/08/10 10:05:05;;;;;;;0.60;0.32;;;;;;;36.15;39.26;102817.47;5071985;28;20405;-71
2022/08/10 10:07:35;;;;;;;1.20;0.50;;;;;;;37.25;38.81;102808.34;5061910;28;20029;-70
2022/08/10 10:10:09;;;;;;;;;;;;;;;37.73;37.63;102801.44;5075482;28;20376;-70
2022/08/10 10:13:05;;;;;;;1.45;0.60;;;;;;;37.58;39.54;102805.94;5073593;28;20002;-70
2022/08/10 10:15:45;;;;;;;2.20;0.77;;;;;;;39.84;35.10;102804.13;5073727;28;20043;-70
2022/08/10 10:18:30;;;;;;;1.40;0.70;;;;;;;37.47;38.02;102798.84;5072088;28;20383;-70
2022/08/10 10:21:16;;;;;;;1.33;0.40;;;;;;;39.69;36.04;102794.13;5075232;28;20024;-70
2022/08/10 10:23:48;;;;;;;2.05;0.40;;;;;;;40.69;33.94;102801.16;5071771;28;20056;-70
2022/08/10 10:26:25;;;;;;;1.30;0.50;;;;;;;39.25;35.34;102791.78;5075371;28;20408;-70
2022/08/10 10:29:19;;;;;;;1.55;0.77;;;;;;;37.50;36.26;102786.41;5074631;28;20438;-70
2022/08/10 10:31:56;;;;;;;1.08;0.40;;;;;;;38.35;36.82;102785.97;5071839;28;20407;-70
2022/08/10 10:34:46;;;;;;;0.40;0.25;;;;;;;37.45;37.83;102784.53;5069087;28;20028;-70
2022/08/10 10:37:12;;;;;;;2.03;0.68;;;;;;;39.72;35.35;102789.94;5075039;28;20031;-70
2022/08/10 10:39:42;;;;;;;1.42;0.57;;;;;;;40.65;35.19;102781.56;5071231;28;20085;-70
2022/08/10 10:42:25;;;;;;;0.57;0.30;;;;;;;40.73;34.46;102780.06;5069162;28;20029;-70
2022/08/10 10:45:03;;;;;;;1.85;0.70;;;;;;;36.55;36.93;102782.75;5072893;28;20036;-71
2022/08/10 10:47:54;;;;;;;0.70;0.50;;;;;;;38.22;38.83;102778.41;5070342;28;20020;-71
2022/08/10 10:51:00;;;;;;;2.03;0.80;;;;;;;39.16;35.24;102777.00;5074557;28;20560;-71
2022/08/10 10:53:47;;;;;;;0.57;0.30;;;;;;;39.37;35.43;102780.25;5062888;28;20109;-71
2022/08/10 10:56:42;;;;;;;1.63;0.40;;;;;;;40.73;34.46;102779.25;5072547;28;20029;-71
2022/08/10 10:59:29;;;;;;;0.85;0.32;;;;;;;41.56;32.86;102765.94;5073532;28;20016;-71
2022/08/10 11:02:26;;;;;;;3.33;0.60;;;;;;;39.57;34.04;102771.69;5073259;28;20727;-71
2022/08/10 11:05:22;;;;;;;1.20;0.30;;;;;;;40.72;33.12;102767.34;5074085;28;20074;-71
2022/08/10 11:07:54;;;;;;;1.23;0.38;;;;;;;39.31;34.27;102762.97;5073674;28;20034;-71
2022/08/10 11:10:28;;;;;;;2.17;0.60;;;;;;;36.59;36.75;102761.84;5074539;28;20059;-70
2022/08/10 11:13:19;;;;;;;2.47;0.65;;;;;;;35.96;38.24;102759.50;5070518;28;20020;-71
2022/08/10 11:15:53;;;;;;;3.17;0.57;;;;;;;34.40;39.81;102748.34;5078406;28;20502;-71
2022/08/10 11:18:25;;;;;;;1.17;0.50;;;;;;;33.87;42.37;102752.09;5066048;28;20080;-71
2022/08/10 11:20:59;;;;;;;1.02;0.50;;;;;;;34.09;38.44;102749.22;5079370;28;20024;-71
2022/08/10 11:23:35;;;;;;;0.93;0.40;;;;;;;35.88;37.41;102749.88;5068001;28;20021;-71
2022/08/10 11:26:14;;;;;;;0.30;0.20;;;;;;;36.57;37.29;102744.78;5076260;28;20105;-71
2022/08/10 11:28:47;;;;;;;2.40;0.50;;;;;;;38.69;35.09;102738.94;5073949;28;20012;-71
2022/08/10 11:31:36;;;;;;;1.85;0.40;;;;;;;38.42;35.00;102752.53;5074908;28;20136;-71
2022/08/10 11:34:10;;;;;;;0.60;0.40;;;;;;;35.98;38.13;102747.13;5078597;28;20024;-71
2022/08/10 11:37:01;;;;;;;1.50;0.43;;;;;;;36.19;39.61;102747.09;5074690;28;20177;-71
2022/08/10 11:39:54;;;;;;;4.57;0.47;;;;;;;36.83;36.55;102740.84;5079895;28;20081;-71
2022/08/10 11:42:20;;;;;;;3.22;0.38;;;;;;;38.00;36.13;102746.63;5070784;28;20056;-71
2022/08/10 11:44:58;;;;;;;0.95;0.47;;;;;;;35.28;39.32;102737.72;5069387;28;20056;-72
2022/08/10 11:47:40;;;;;;;1.77;0.50;;;;;;;35.22;38.84;102734.16;5072377;28;20056;-71